Overview Statistics Trail Chart Weather Telemetry Raw packets
 

This is the latest recevied weather packets stored in our database for station/object WX5RP. If no packets are shown the sender has not sent any weather packets the latest 10 day(s).

<< 29 30 31 32 33 34 35 >>
Time Temp. Humidity Pressure Rain* Wind** Luminosity Snow
1777561515 7.22° C 66% 1022.1 hPa 0 mm - 366 W/m² -
1777560915 6.11° C 70% 1022.4 hPa 0 mm - 337 W/m² -
1777560315 4.44° C 73% 1022.4 hPa 0 mm - 308 W/m² -
1777559716 3.33° C 74% 1022.6 hPa 0 mm - 271 W/m² -
1777559115 2.78° C 77% 1023.1 hPa 0 mm - 227 W/m² -
1777558515 1.67° C 78% 1023.1 hPa 0 mm - 188 W/m² -
1777557918 0.56° C 79% 1021.8 hPa 0 mm - 143 W/m² -
1777557315 -0.56° C 80% 1021.8 hPa 0 mm - 111 W/m² -
1777556715 -1.67° C 80% 1021.4 hPa 0 mm - 76 W/m² -
1777556116 -2.22° C 81% 1021.3 hPa 0 mm - 49 W/m² -
1777555517 -2.78° C 80% 1021.2 hPa 0 mm - 29 W/m² -
1777554917 -2.78° C 81% 1021.2 hPa 0 mm - 14 W/m² -
1777554317 -2.22° C 81% 1021.2 hPa 0 mm - 8 W/m² -
1777553718 -2.78° C 81% 1021.2 hPa 0 mm - 0 W/m² -
1777553117 -2.78° C 80% 1021.5 hPa 0 mm - 0 W/m² -
1777552517 -2.22° C 78% 1021.2 hPa 0 mm - 0 W/m² -
1777551917 -1.67° C 79% 1021.2 hPa 0 mm - 0 W/m² -
1777551317 -2.22° C 78% 1021.2 hPa 0 mm - 0 W/m² -
1777550717 -1.67° C 78% 1021.2 hPa 0 mm - 0 W/m² -
1777550117 -1.67° C 77% 1021.5 hPa 0 mm - 0 W/m² -
1777549516 -1.67° C 77% 1021.5 hPa 0 mm - 0 W/m² -
1777548917 -1.67° C 76% 1021.7 hPa 0 mm - 0 W/m² -
1777548316 -1.11° C 74% 1021.3 hPa 0 mm - 0 W/m² -
1777547717 -1.11° C 75% 1021.3 hPa 0 mm - 0 W/m² -
1777547117 -1.11° C 74% 1021.3 hPa 0 mm - 0 W/m² -

* Rain latest hour (hover to see other rain measurements)
** Current wind speed in m/s (hover to see current wind gust speed)